Time;durP1;ratioP1;P1;durP2;ratioP2;P2;SDS_P1;SDS_P2;PMS_P1;PMS_P2;Temp;Humidity;BMP_temperature;BMP_pressure;BME280_temperature;BME280_humidity;BME280_pressure;Samples;Min_cycle;Max_cycle;Signal;HPM_P1;HPM_P2
2023/01/13 00:00:57;;;;;;;6.97;6.27;;;;;;;4.66;67.97;95228.44;5017065;28;20292;-65
2023/01/13 00:03:22;;;;;;;6.93;6.30;;;;;;;4.68;67.54;95236.97;5014950;28;20221;-65
2023/01/13 00:05:48;;;;;;;7.47;6.80;;;;;;;4.38;68.76;95237.38;5010604;28;20218;-66
2023/01/13 00:08:14;;;;;;;7.10;6.40;;;;;;;4.50;68.26;95239.09;5010186;28;20305;-65
2023/01/13 00:10:39;;;;;;;6.83;6.20;;;;;;;4.51;68.72;95238.16;5030290;28;20232;-65
2023/01/13 00:13:05;;;;;;;7.33;6.63;;;;;;;4.42;69.05;95236.22;5003392;28;20186;-66
2023/01/13 00:15:32;;;;;;;10.57;6.80;;;;;;;4.53;68.48;95244.09;5023080;28;20213;-65
2023/01/13 00:17:57;;;;;;;7.13;6.43;;;;;;;4.59;68.28;95245.44;5016052;28;20235;-65
2023/01/13 00:20:23;;;;;;;7.33;6.63;;;;;;;4.52;68.50;95239.84;5003804;28;20241;-65
2023/01/13 00:22:48;;;;;;;7.23;6.53;;;;;;;4.15;69.79;95241.59;5011389;28;20227;-65
2023/01/13 00:25:14;;;;;;;6.57;5.97;;;;;;;4.25;69.73;95242.63;5012993;28;20282;-65
2023/01/13 00:27:39;;;;;;;6.67;6.03;;;;;;;4.35;69.09;95235.81;5011606;28;20257;-65
2023/01/13 00:30:06;;;;;;;7.37;6.67;;;;;;;4.23;69.60;95235.88;5015251;28;20218;-65
2023/01/13 00:32:32;;;;;;;6.27;5.67;;;;;;;4.35;69.13;95238.41;5012027;28;20223;-65
2023/01/13 00:34:57;;;;;;;7.43;6.23;;;;;;;4.31;69.71;95242.19;5005566;28;20222;-65
2023/01/13 00:37:23;;;;;;;6.67;6.07;;;;;;;4.39;69.38;95234.66;5030356;28;20259;-65
2023/01/13 00:39:52;;;;;;;6.77;6.10;;;;;;;4.47;69.25;95246.31;5014683;28;20214;-65
2023/01/13 00:45:03;;;;;;;7.40;6.33;;;;;;;4.53;68.68;95240.66;5002908;28;20245;-65
2023/01/13 00:47:29;;;;;;;7.83;7.10;;;;;;;4.53;68.59;95240.66;5005753;28;20230;-65
2023/01/13 00:49:54;;;;;;;7.97;7.23;;;;;;;4.61;68.10;95239.16;5015748;28;20227;-65
2023/01/13 00:52:20;;;;;;;7.57;6.87;;;;;;;4.53;68.54;95243.28;5020510;28;20191;-65
2023/01/13 00:54:45;;;;;;;8.13;7.37;;;;;;;4.62;68.36;95242.59;5014792;28;20190;-65
2023/01/13 00:57:11;;;;;;;7.47;6.73;;;;;;;4.71;67.42;95235.91;5013313;28;20231;-65
2023/01/13 00:59:36;;;;;;;7.70;7.00;;;;;;;4.76;67.41;95232.03;5003965;28;20238;-66
2023/01/13 01:02:02;;;;;;;8.17;7.37;;;;;;;4.68;67.17;95228.28;5020636;28;20215;-66
2023/01/13 01:04:27;;;;;;;7.37;6.73;;;;;;;4.72;67.28;95230.56;5009906;28;20186;-65
2023/01/13 01:06:52;;;;;;;7.73;7.00;;;;;;;4.65;67.69;95229.34;5014625;28;20223;-65
2023/01/13 01:09:18;;;;;;;6.60;6.00;;;;;;;4.58;67.95;95225.53;5016669;28;20265;-65
2023/01/13 01:11:43;;;;;;;6.70;6.10;;;;;;;4.71;67.25;95228.09;5015963;28;20215;-65
2023/01/13 01:14:11;;;;;;;6.67;6.07;;;;;;;4.86;67.04;95232.19;5015296;28;20214;-66
2023/01/13 01:16:39;;;;;;;6.73;6.13;;;;;;;4.60;67.25;95218.47;5017371;28;20227;-66
2023/01/13 01:19:05;;;;;;;7.33;6.63;;;;;;;4.75;67.23;95225.16;5019472;28;20207;-66
2023/01/13 01:21:31;;;;;;;7.30;6.60;;;;;;;4.71;67.11;95222.91;5017340;28;20226;-66
2023/01/13 01:24:02;;;;;;;6.37;5.83;;;;;;;4.69;67.21;95216.94;5006934;28;20219;-66
2023/01/13 01:26:28;;;;;;;6.40;5.90;;;;;;;4.58;67.30;95213.34;4999359;28;20243;-67
2023/01/13 01:28:54;;;;;;;6.90;6.30;;;;;;;4.74;67.27;95210.47;5012824;28;20250;-66
2023/01/13 01:31:23;;;;;;;6.87;6.27;;;;;;;4.79;66.88;95220.56;5024882;28;20194;-64
2023/01/13 01:33:49;;;;;;;6.13;5.63;;;;;;;4.84;66.91;95219.28;5007697;28;20266;-66
2023/01/13 01:36:18;;;;;;;6.70;6.10;;;;;;;4.78;66.79;95213.66;5028720;28;20230;-66
2023/01/13 01:38:44;;;;;;;7.53;6.63;;;;;;;4.85;66.42;95209.69;5012664;28;20230;-65
2023/01/13 01:41:19;;;;;;;6.80;6.20;;;;;;;4.88;66.76;95208.63;5015145;28;20223;-65
2023/01/13 01:44:01;;;;;;;6.90;6.30;;;;;;;4.74;67.10;95201.81;5008072;28;20222;-66
2023/01/13 01:46:35;;;;;;;6.00;5.50;;;;;;;4.80;66.91;95215.22;5023428;28;20186;-64
2023/01/13 01:49:25;;;;;;;6.73;6.13;;;;;;;4.82;66.75;95197.72;5025520;28;20331;-64
2023/01/13 01:52:10;;;;;;;6.43;5.83;;;;;;;4.73;66.66;95201.00;5012458;28;20300;-64
2023/01/13 01:54:57;;;;;;;6.27;5.67;;;;;;;4.77;66.75;95207.63;5016829;28;20231;-64
2023/01/13 01:57:28;;;;;;;7.30;6.60;;;;;;;4.80;66.63;95201.38;5031868;28;20222;-65
2023/01/13 01:59:54;;;;;;;7.23;6.53;;;;;;;4.84;66.46;95203.66;5009798;28;20305;-65
2023/01/13 02:02:21;;;;;;;6.80;6.20;;;;;;;4.62;67.13;95212.19;5012025;28;20219;-65
2023/01/13 02:04:50;;;;;;;6.97;6.37;;;;;;;4.28;68.52;95205.97;5013309;28;20218;-66
2023/01/13 02:07:21;;;;;;;8.10;6.30;;;;;;;4.52;67.84;95203.38;5007381;28;20327;-63
2023/01/13 02:09:48;;;;;;;6.47;5.90;;;;;;;4.58;67.73;95200.31;5012559;28;20215;-65
2023/01/13 02:12:30;;;;;;;6.13;5.60;;;;;;;4.72;67.24;95201.09;5018366;28;20222;-65
2023/01/13 02:15:42;;;;;;;6.87;6.13;;;;;;;4.70;66.87;95200.38;5011816;28;20272;-66
2023/01/13 02:18:22;;;;;;;6.50;5.90;;;;;;;4.76;66.63;95200.78;4982571;28;20242;-65
2023/01/13 02:21:15;;;;;;;6.17;5.60;;;;;;;4.79;66.89;95197.94;4982062;28;20321;-65
2023/01/13 02:26:52;;;;;;;6.70;6.03;;;;;;;4.73;66.93;95200.16;4995329;28;20359;-66
2023/01/13 02:32:47;;;;;;;5.97;5.47;;;;;;;4.77;66.85;95199.00;4998084;28;20233;-66
2023/01/13 02:35:24;;;;;;;6.47;5.87;;;;;;;4.75;67.09;95198.28;4977930;28;20442;-66
2023/01/13 02:37:50;;;;;;;5.93;5.43;;;;;;;4.73;66.91;95194.94;4978288;28;20227;-65
2023/01/13 02:40:33;;;;;;;6.30;5.70;;;;;;;4.60;67.45;95210.66;4976309;28;20286;-65
2023/01/13 02:46:31;;;;;;;6.37;5.77;;;;;;;4.55;68.03;95208.38;4995569;28;20243;-66
2023/01/13 02:49:03;;;;;;;6.97;6.37;;;;;;;4.62;67.35;95195.72;4974969;28;20306;-66
2023/01/13 02:51:31;;;;;;;6.43;5.83;;;;;;;4.68;67.41;95197.91;4994593;28;20354;-65
2023/01/13 02:54:02;;;;;;;6.90;6.30;;;;;;;4.42;68.14;95198.00;4981422;28;20227;-67
2023/01/13 02:56:30;;;;;;;6.97;6.37;;;;;;;4.30;68.35;95193.66;5006646;28;20231;-67
2023/01/13 02:58:58;;;;;;;7.20;6.50;;;;;;;4.19;68.46;95194.41;5012445;28;20263;-65
2023/01/13 03:01:24;;;;;;;7.30;6.70;;;;;;;4.50;68.20;95199.22;5000681;28;20187;-65
2023/01/13 03:03:49;;;;;;;7.23;6.53;;;;;;;4.33;68.27;95200.41;5006006;28;20184;-65
2023/01/13 03:06:15;;;;;;;6.80;6.20;;;;;;;4.33;68.25;95203.00;5029809;28;20230;-65
2023/01/13 03:08:49;;;;;;;6.97;6.37;;;;;;;4.45;68.06;95196.94;5009818;28;20538;-64
2023/01/13 03:11:19;;;;;;;6.10;5.57;;;;;;;4.54;67.72;95200.66;5006523;28;20223;-65
2023/01/13 03:13:44;;;;;;;7.03;6.43;;;;;;;4.61;67.63;95197.50;5016462;28;20191;-65
2023/01/13 03:16:27;;;;;;;6.97;6.27;;;;;;;4.41;68.15;95198.09;5004895;28;20201;-65
2023/01/13 03:19:17;;;;;;;7.43;6.67;;;;;;;4.24;68.90;95191.50;5020579;28;20298;-65
2023/01/13 03:21:46;;;;;;;7.60;6.90;;;;;;;4.47;68.15;95195.06;5013985;28;20277;-65
2023/01/13 03:24:39;;;;;;;7.43;6.70;;;;;;;4.54;67.51;95198.03;5007990;28;20313;-66
2023/01/13 03:27:23;;;;;;;7.20;6.50;;;;;;;4.32;68.18;95194.38;5002519;28;20230;-65
2023/01/13 03:30:06;;;;;;;7.20;6.50;;;;;;;4.43;67.87;95202.25;5015630;28;20246;-65
2023/01/13 03:32:37;;;;;;;6.93;6.33;;;;;;;4.46;67.78;95205.56;4999426;28;20309;-65
2023/01/13 03:35:15;;;;;;;6.93;6.33;;;;;;;4.37;67.94;95200.09;5011135;28;20222;-65
2023/01/13 03:37:46;;;;;;;6.40;5.77;;;;;;;4.23;68.68;95202.84;5018584;28;20285;-64
2023/01/13 03:40:19;;;;;;;6.47;5.87;;;;;;;4.10;68.87;95212.47;5026354;28;20245;-65
2023/01/13 03:45:40;;;;;;;6.43;5.83;;;;;;;4.25;68.73;95211.41;5008969;28;20315;-65
2023/01/13 03:48:09;;;;;;;6.60;6.00;;;;;;;4.39;68.52;95206.03;5002074;28;20224;-65
2023/01/13 03:50:40;;;;;;;6.30;5.70;;;;;;;4.45;68.20;95206.53;4983810;28;20278;-66
2023/01/13 03:53:10;;;;;;;6.60;6.00;;;;;;;4.12;68.54;95213.19;4996813;28;20303;-66
2023/01/13 03:55:47;;;;;;;6.37;5.80;;;;;;;4.14;69.38;95214.75;5019278;28;20253;-66
2023/01/13 03:58:18;;;;;;;6.70;6.17;;;;;;;4.17;68.93;95211.94;5008820;28;20235;-65
2023/01/13 04:00:51;;;;;;;6.43;5.93;;;;;;;4.26;68.70;95207.84;5004632;28;20219;-66
2023/01/13 04:03:28;;;;;;;6.97;6.27;;;;;;;4.40;68.29;95212.06;5016630;28;20215;-66
2023/01/13 04:06:10;;;;;;;5.50;5.00;;;;;;;4.13;69.21;95207.03;5024032;28;20301;-65
2023/01/13 04:08:43;;;;;;;6.47;5.87;;;;;;;4.32;68.57;95207.41;5026794;28;20234;-65
2023/01/13 04:11:13;;;;;;;5.77;5.17;;;;;;;4.43;68.06;95214.44;5016491;28;20227;-65
2023/01/13 04:13:41;;;;;;;6.07;5.57;;;;;;;4.39;68.30;95216.44;5009256;28;20199;-65
2023/01/13 04:16:09;;;;;;;6.73;5.77;;;;;;;4.42;67.77;95213.63;5011019;28;20305;-66
2023/01/13 04:18:37;;;;;;;5.80;5.30;;;;;;;4.30;68.37;95214.47;5012241;28;20225;-65
2023/01/13 04:21:03;;;;;;;6.03;5.53;;;;;;;4.42;67.65;95226.63;5029585;28;20237;-65
2023/01/13 04:23:29;;;;;;;6.30;5.70;;;;;;;4.51;67.89;95225.13;5011576;28;20296;-66
2023/01/13 04:25:55;;;;;;;5.80;5.30;;;;;;;4.31;68.38;95226.56;5014023;28;20214;-65
2023/01/13 04:28:21;;;;;;;6.33;5.83;;;;;;;4.38;68.05;95224.34;5017408;28;20201;-66
2023/01/13 04:30:47;;;;;;;5.43;5.03;;;;;;;4.51;67.78;95221.72;5008061;28;20219;-66
2023/01/13 04:33:14;;;;;;;6.10;5.40;;;;;;;3.98;69.53;95233.19;5007532;28;20219;-66
2023/01/13 04:35:40;;;;;;;5.90;5.40;;;;;;;4.12;69.13;95223.59;5017391;28;20246;-66
2023/01/13 04:38:15;;;;;;;5.70;5.20;;;;;;;4.27;69.07;95226.88;5008208;28;20258;-66
2023/01/13 04:40:41;;;;;;;6.10;5.60;;;;;;;4.36;68.52;95223.66;5020557;28;20182;-65
2023/01/13 04:43:06;;;;;;;5.87;5.37;;;;;;;4.51;67.80;95232.94;5003769;28;20182;-66
2023/01/13 04:45:32;;;;;;;5.73;5.23;;;;;;;4.52;67.96;95234.63;5016357;28;20281;-66
2023/01/13 04:47:58;;;;;;;5.57;5.07;;;;;;;4.55;67.90;95233.59;5007061;28;20227;-66
2023/01/13 04:50:52;;;;;;;5.50;5.00;;;;;;;4.64;67.35;95232.91;5010675;28;20222;-66
2023/01/13 04:53:17;;;;;;;5.40;4.90;;;;;;;4.59;67.48;95233.22;5010836;28;20284;-66
2023/01/13 04:55:43;;;;;;;5.40;4.90;;;;;;;4.31;68.45;95230.94;5017430;28;20182;-66
2023/01/13 04:58:10;;;;;;;6.30;5.80;;;;;;;4.50;67.90;95235.69;5016023;28;20199;-66
2023/01/13 05:00:36;;;;;;;6.43;5.83;;;;;;;4.43;68.29;95224.84;5020752;28;20223;-66
2023/01/13 05:03:02;;;;;;;6.00;5.50;;;;;;;4.37;67.95;95233.94;5004065;28;20297;-67
2023/01/13 05:05:29;;;;;;;6.50;5.90;;;;;;;4.42;68.35;95238.81;4999617;28;20216;-67
2023/01/13 05:07:54;;;;;;;6.17;5.63;;;;;;;4.41;67.99;95227.59;5010094;28;20281;-67
2023/01/13 05:10:20;;;;;;;6.73;6.07;;;;;;;4.40;68.24;95231.09;5008753;28;20207;-66
2023/01/13 05:18:15;;;;;;;6.33;5.83;;;;;;;4.47;68.36;95236.72;5009680;28;20236;-66
2023/01/13 05:20:41;;;;;;;6.67;6.03;;;;;;;4.42;68.45;95236.22;5021039;28;20223;-67
2023/01/13 05:25:50;;;;;;;6.30;5.80;;;;;;;4.34;68.72;95235.94;5005000;28;20236;-67
2023/01/13 05:28:16;;;;;;;6.27;5.77;;;;;;;4.30;68.91;95244.88;5011451;28;20212;-67
2023/01/13 05:30:45;;;;;;;5.70;5.20;;;;;;;4.39;68.24;95234.66;5024571;28;20305;-67
2023/01/13 05:33:12;;;;;;;8.20;6.43;;;;;;;4.35;68.94;95242.78;5012491;28;20266;-67
2023/01/13 05:35:38;;;;;;;6.43;5.83;;;;;;;4.53;68.23;95240.66;5013038;28;20293;-66
2023/01/13 05:38:04;;;;;;;7.13;6.43;;;;;;;4.48;67.98;95242.75;5008741;28;20230;-67
2023/01/13 05:43:23;;;;;;;7.53;6.83;;;;;;;4.55;67.92;95238.78;5008256;28;20225;-67
2023/01/13 05:46:06;;;;;;;7.93;7.23;;;;;;;4.69;67.83;95248.22;5014434;28;20302;-68
2023/01/13 05:48:40;;;;;;;8.27;7.50;;;;;;;4.65;67.63;95239.75;5009274;28;20248;-66
2023/01/13 05:51:08;;;;;;;8.17;7.37;;;;;;;4.67;67.80;95248.31;5003750;28;20269;-66
2023/01/13 05:53:33;;;;;;;8.47;7.77;;;;;;;4.70;67.86;95253.28;5016331;28;20218;-66
2023/01/13 05:56:02;;;;;;;9.53;7.53;;;;;;;4.83;67.58;95253.25;5012677;28;20227;-66
2023/01/13 05:58:27;;;;;;;9.50;8.43;;;;;;;4.68;67.79;95256.94;5014138;28;20223;-66
2023/01/13 06:00:59;;;;;;;9.50;8.60;;;;;;;4.27;69.51;95256.34;5029713;28;20306;-66
2023/01/13 06:03:24;;;;;;;9.93;8.77;;;;;;;4.49;69.01;95260.03;5025323;28;20227;-66
2023/01/13 06:05:57;;;;;;;11.43;9.63;;;;;;;4.46;68.71;95253.28;5022000;28;20215;-66
2023/01/13 06:08:22;;;;;;;10.90;8.20;;;;;;;4.58;68.25;95264.59;5031565;28;20227;-66
2023/01/13 06:10:48;;;;;;;11.73;8.57;;;;;;;4.61;68.46;95267.81;5014989;28;20239;-66
2023/01/13 06:13:13;;;;;;;10.87;9.70;;;;;;;4.63;68.30;95260.72;5016816;28;20279;-66
2023/01/13 06:15:38;;;;;;;10.87;9.87;;;;;;;4.63;68.04;95262.50;5013852;28;20329;-66
2023/01/13 06:18:04;;;;;;;10.80;9.70;;;;;;;4.72;67.88;95259.22;5011709;28;20215;-66
2023/01/13 06:20:30;;;;;;;10.80;9.80;;;;;;;4.84;67.72;95275.78;5021523;28;20223;-66
2023/01/13 06:22:56;;;;;;;10.10;9.10;;;;;;;4.80;67.52;95279.53;5013020;28;20183;-65
2023/01/13 06:25:29;;;;;;;11.00;9.87;;;;;;;4.76;67.94;95276.31;5008303;28;20178;-66
2023/01/13 06:27:57;;;;;;;11.20;10.10;;;;;;;4.76;68.17;95284.13;5020274;28;20215;-66
2023/01/13 06:30:24;;;;;;;11.07;9.90;;;;;;;4.87;67.56;95275.53;5025994;28;20223;-66
2023/01/13 06:32:53;;;;;;;11.53;10.33;;;;;;;4.68;68.52;95277.78;5004368;28;20290;-65
2023/01/13 06:35:24;;;;;;;10.83;9.80;;;;;;;4.67;68.87;95276.97;5020007;28;20223;-64
2023/01/13 06:37:53;;;;;;;11.53;10.43;;;;;;;4.77;68.80;95279.75;5027115;28;20194;-62
2023/01/13 06:40:19;;;;;;;11.37;10.27;;;;;;;4.70;68.64;95276.75;5011539;28;20178;-67
2023/01/13 06:45:30;;;;;;;11.20;10.10;;;;;;;4.81;67.81;95274.22;5003778;28;20300;-68
2023/01/13 06:47:58;;;;;;;11.77;10.57;;;;;;;4.82;67.84;95270.66;4993018;28;20306;-69
2023/01/13 06:50:23;;;;;;;11.83;10.70;;;;;;;4.82;68.10;95278.47;5009141;28;20269;-70
2023/01/13 06:52:49;;;;;;;11.27;10.17;;;;;;;4.75;68.12;95272.03;5018191;28;20182;-70
2023/01/13 06:55:14;;;;;;;11.37;10.20;;;;;;;4.86;67.82;95273.88;5010688;28;20250;-70
2023/01/13 06:57:54;;;;;;;12.03;10.83;;;;;;;5.04;67.29;95276.91;5007044;28;20225;-70
2023/01/13 07:00:21;;;;;;;11.80;10.57;;;;;;;5.04;67.10;95274.31;5012751;28;20229;-71
2023/01/13 07:02:47;;;;;;;11.40;9.70;;;;;;;5.04;66.91;95277.75;5009313;28;20289;-68
2023/01/13 07:05:13;;;;;;;11.90;10.53;;;;;;;5.12;66.74;95282.41;5013116;28;20222;-68
2023/01/13 07:07:39;;;;;;;11.97;10.77;;;;;;;5.19;66.41;95277.59;5014376;28;20469;-68
2023/01/13 07:10:08;;;;;;;11.67;10.00;;;;;;;5.02;67.17;95278.81;5022158;28;20215;-69
2023/01/13 07:15:17;;;;;;;11.87;10.67;;;;;;;5.06;67.01;95278.47;4997031;28;20215;-69
2023/01/13 07:15:20;;;;;;;12.47;11.13;;;;;;;5.13;66.73;95276.25;5011846;28;20215;-69
2023/01/13 07:17:46;;;;;;;12.17;10.30;;;;;;;5.08;66.79;95270.56;5011068;28;20226;-69
2023/01/13 07:20:11;;;;;;;12.40;10.73;;;;;;;5.25;66.45;95269.31;5021338;28;20223;-72
2023/01/13 07:22:37;;;;;;;11.23;10.03;;;;;;;5.05;67.07;95278.56;5019820;28;20680;-69
2023/01/13 07:25:03;;;;;;;11.67;10.47;;;;;;;4.86;67.93;95269.50;5010455;28;20216;-67
2023/01/13 07:27:28;;;;;;;11.60;10.43;;;;;;;4.63;68.43;95270.31;5009304;28;20223;-67
2023/01/13 07:29:53;;;;;;;11.97;10.60;;;;;;;4.80;67.85;95263.91;5008717;28;20218;-69
2023/01/13 07:32:19;;;;;;;10.43;9.33;;;;;;;5.06;67.05;95268.06;5015807;28;20211;-67
2023/01/13 07:34:44;;;;;;;13.83;9.37;;;;;;;5.26;66.24;95271.78;5010932;28;20199;-68
2023/01/13 07:37:10;;;;;;;9.93;8.90;;;;;;;5.25;66.05;95275.34;5012429;28;20278;-68
2023/01/13 07:39:35;;;;;;;10.07;9.07;;;;;;;5.04;67.22;95267.31;5014835;28;20219;-67
2023/01/13 07:44:44;;;;;;;9.27;8.30;;;;;;;5.44;65.26;95272.22;5011177;28;20230;-68
2023/01/13 07:47:10;;;;;;;9.23;8.20;;;;;;;5.48;65.15;95270.19;5009088;28;20226;-70
2023/01/13 07:49:36;;;;;;;9.57;7.73;;;;;;;5.53;64.66;95275.91;5014918;28;20191;-68
2023/01/13 07:52:01;;;;;;;7.20;6.50;;;;;;;5.61;64.14;95283.97;5020978;28;20231;-68
2023/01/13 07:54:27;;;;;;;8.90;7.90;;;;;;;5.53;64.35;95270.69;5015223;28;20272;-65
2023/01/13 07:56:55;;;;;;;9.40;7.17;;;;;;;5.76;63.83;95276.78;5009442;28;20241;-67
2023/01/13 07:59:20;;;;;;;9.70;7.77;;;;;;;5.65;63.84;95282.81;5022953;28;20249;-68
2023/01/13 08:01:46;;;;;;;10.03;7.87;;;;;;;5.83;63.25;95282.41;5012879;28;20274;-69
2023/01/13 08:04:11;;;;;;;9.23;7.83;;;;;;;5.74;63.37;95276.91;5011927;28;20175;-66
2023/01/13 08:06:39;;;;;;;9.47;8.00;;;;;;;5.73;63.34;95285.69;5010092;28;20239;-65
2023/01/13 08:09:05;;;;;;;9.13;7.47;;;;;;;5.71;63.44;95284.13;5010306;28;20230;-67
2023/01/13 08:11:30;;;;;;;8.57;6.83;;;;;;;5.82;62.81;95286.75;5015432;28;20222;-67
2023/01/13 08:13:56;;;;;;;7.73;6.63;;;;;;;5.87;62.64;95291.63;5019801;28;20182;-67
2023/01/13 08:16:22;;;;;;;7.47;6.67;;;;;;;5.75;62.59;95290.81;5013163;28;20190;-68
2023/01/13 08:18:47;;;;;;;9.40;7.73;;;;;;;5.80;62.94;95290.44;5023470;28;20272;-64
2023/01/13 08:21:14;;;;;;;7.67;6.40;;;;;;;5.93;62.49;95285.94;5000939;28;20276;-69
2023/01/13 08:23:41;;;;;;;7.70;6.77;;;;;;;5.98;61.97;95294.28;5016555;28;20764;-68
2023/01/13 08:26:10;;;;;;;9.53;7.97;;;;;;;6.05;61.69;95285.06;5003755;28;20230;-69
2023/01/13 08:28:39;;;;;;;7.97;7.07;;;;;;;6.13;61.53;95281.84;5025332;28;20222;-68
2023/01/13 08:31:06;;;;;;;8.97;7.67;;;;;;;6.16;61.71;95287.66;5017019;28;20230;-70
2023/01/13 08:33:33;;;;;;;8.47;7.57;;;;;;;6.05;62.18;95285.06;5014261;28;20214;-70
2023/01/13 08:36:02;;;;;;;10.83;7.97;;;;;;;6.38;61.46;95288.59;5013411;28;20292;-68
2023/01/13 08:38:27;;;;;;;11.33;7.30;;;;;;;6.36;61.01;95280.06;5021341;28;20231;-67
2023/01/13 08:40:53;;;;;;;10.27;8.13;;;;;;;6.19;61.40;95276.97;5022123;28;20214;-71
2023/01/13 08:43:18;;;;;;;11.07;7.90;;;;;;;6.36;61.10;95286.13;5013661;28;20203;-71
2023/01/13 08:45:43;;;;;;;10.40;7.97;;;;;;;6.27;61.14;95275.56;5020871;28;20229;-66
2023/01/13 08:48:09;;;;;;;8.90;7.87;;;;;;;6.40;61.01;95282.31;5005499;28;20235;-68
2023/01/13 08:50:34;;;;;;;12.37;8.17;;;;;;;6.68;60.24;95267.06;5003892;28;20282;-66
2023/01/13 08:53:00;;;;;;;10.10;8.73;;;;;;;6.90;59.54;95270.63;5018151;28;20218;-66
2023/01/13 08:55:25;;;;;;;12.57;8.93;;;;;;;6.93;59.40;95267.75;5031087;28;20246;-66
2023/01/13 08:57:51;;;;;;;12.47;10.13;;;;;;;6.49;61.03;95264.25;5015222;28;20219;-66
2023/01/13 09:00:17;;;;;;;10.47;9.20;;;;;;;6.89;60.07;95267.16;5008431;28;20230;-67
2023/01/13 09:02:42;;;;;;;10.80;7.83;;;;;;;7.13;59.14;95264.34;5016173;28;20690;-66
2023/01/13 09:05:09;;;;;;;6.97;6.27;;;;;;;7.19;57.69;95276.94;5022690;28;20233;-66
2023/01/13 09:07:37;;;;;;;9.53;7.20;;;;;;;7.17;57.94;95272.78;5012249;28;20218;-66
2023/01/13 09:10:05;;;;;;;7.40;6.70;;;;;;;6.98;57.71;95258.56;5011417;28;20227;-66
2023/01/13 09:15:17;;;;;;;9.87;8.13;;;;;;;7.10;58.22;95266.38;5005992;28;20226;-68
2023/01/13 09:17:43;;;;;;;12.47;9.20;;;;;;;7.11;58.41;95266.25;5007035;28;20230;-67
2023/01/13 09:20:10;;;;;;;10.17;9.17;;;;;;;7.21;58.03;95259.31;5000465;28;20239;-70
2023/01/13 09:22:36;;;;;;;10.90;9.80;;;;;;;7.10;58.33;95254.13;4999941;28;20198;-69
2023/01/13 09:25:02;;;;;;;10.30;8.57;;;;;;;7.23;57.93;95261.81;5013460;28;20230;-70
2023/01/13 09:27:28;;;;;;;8.17;7.17;;;;;;;7.14;58.29;95263.41;5015078;28;20250;-70
2023/01/13 09:29:53;;;;;;;7.60;6.80;;;;;;;7.39;57.42;95256.16;4997852;28;20232;-69
2023/01/13 09:32:19;;;;;;;9.07;7.53;;;;;;;7.51;57.16;95261.22;4999495;28;20218;-69
2023/01/13 09:35:00;;;;;;;8.83;7.30;;;;;;;7.57;56.72;95257.25;5013351;28;20202;-69
2023/01/13 09:37:30;;;;;;;6.13;5.43;;;;;;;7.69;56.10;95253.59;5016458;28;20243;-70
2023/01/13 09:39:56;;;;;;;6.63;5.67;;;;;;;7.74;55.65;95243.56;5013967;28;20222;-69
2023/01/13 09:45:31;;;;;;;6.90;4.93;;;;;;;7.74;55.66;95266.31;5009166;28;20980;-67
2023/01/13 09:48:08;;;;;;;7.60;5.17;;;;;;;7.83;55.85;95255.09;5020748;28;20187;-68
2023/01/13 09:50:48;;;;;;;6.03;5.00;;;;;;;7.88;55.64;95265.97;5026443;28;20225;-67
2023/01/13 09:53:20;;;;;;;6.00;5.00;;;;;;;7.39;56.63;95254.38;5017977;28;20222;-66
2023/01/13 09:55:45;;;;;;;7.03;4.87;;;;;;;7.26;57.10;95254.53;5024299;28;20215;-67
2023/01/13 09:58:15;;;;;;;7.30;4.37;;;;;;;7.49;56.78;95252.66;5015841;28;20226;-66
2023/01/13 10:00:52;;;;;;;5.30;4.10;;;;;;;7.68;56.08;95248.50;5008847;28;20223;-67
2023/01/13 10:03:26;;;;;;;4.00;3.60;;;;;;;7.98;55.53;95249.50;5024303;28;20179;-69
2023/01/13 10:05:57;;;;;;;3.80;3.50;;;;;;;7.93;55.55;95242.84;5011878;28;20202;-70
2023/01/13 10:08:32;;;;;;;5.37;4.07;;;;;;;8.09;54.95;95245.00;5025722;28;20246;-69
2023/01/13 10:13:13;;;;;;;4.40;3.70;;;;;;;7.88;54.57;95245.03;5017207;28;20272;-70
2023/01/13 10:13:58;;;;;;;6.63;3.33;;;;;;;8.15;54.62;95241.00;5015311;28;20225;-68
2023/01/13 10:16:56;;;;;;;5.30;3.47;;;;;;;7.95;54.83;95251.41;5007372;28;20223;-68
2023/01/13 10:19:28;;;;;;;4.50;3.40;;;;;;;7.63;55.45;95246.25;4949032;28;20237;-68
2023/01/13 10:22:12;;;;;;;5.30;3.10;;;;;;;7.43;56.17;95241.84;4933885;29;20225;-68
2023/01/13 10:25:17;;;;;;;8.40;4.70;;;;;;;7.70;55.72;95233.50;4935720;28;20246;-67
2023/01/13 10:27:48;;;;;;;3.27;2.73;;;;;;;7.65;55.08;95243.53;4953576;28;20225;-68
2023/01/13 10:30:16;;;;;;;2.37;2.17;;;;;;;7.59;55.51;95236.16;4933042;29;20232;-68
2023/01/13 10:33:12;;;;;;;2.77;1.97;;;;;;;7.69;55.28;95234.44;4936714;28;20244;-68
2023/01/13 10:36:20;;;;;;;3.80;2.40;;;;;;;7.77;55.31;95234.63;4894813;29;20290;-68
2023/01/13 10:38:47;;;;;;;6.57;3.40;;;;;;;7.82;55.41;95229.84;4909720;29;20424;-69
2023/01/13 10:41:16;;;;;;;3.47;3.17;;;;;;;7.77;55.44;95216.31;4901831;29;20713;-68
2023/01/13 10:44:03;;;;;;;3.50;3.20;;;;;;;7.66;55.65;95232.09;4898269;29;20218;-68
2023/01/13 10:46:31;;;;;;;4.60;3.80;;;;;;;7.66;55.89;95219.84;4899329;29;20233;-68
2023/01/13 10:48:59;;;;;;;3.30;2.90;;;;;;;7.79;55.64;95222.25;4900473;29;20243;-68
2023/01/13 10:51:36;;;;;;;4.77;2.70;;;;;;;7.92;55.08;95215.00;4891770;29;20191;-68
2023/01/13 10:54:19;;;;;;;5.47;3.27;;;;;;;8.00;54.84;95219.59;4918748;29;20185;-68
2023/01/13 10:56:45;;;;;;;2.80;2.60;;;;;;;7.94;54.76;95210.50;4922002;29;20229;-68
2023/01/13 10:59:23;;;;;;;3.77;3.47;;;;;;;8.06;54.54;95213.84;4937939;29;20232;-68
2023/01/13 11:01:57;;;;;;;2.47;2.27;;;;;;;8.04;54.52;95215.75;4927682;29;20222;-68
2023/01/13 11:04:38;;;;;;;2.97;2.67;;;;;;;7.64;55.33;95219.13;4944389;29;20260;-68
2023/01/13 11:07:27;;;;;;;4.00;3.60;;;;;;;7.68;55.63;95219.72;4918908;28;20236;-68
2023/01/13 11:10:13;;;;;;;4.97;3.43;;;;;;;7.73;55.53;95215.75;4921444;29;20233;-68
2023/01/13 11:12:58;;;;;;;3.67;2.80;;;;;;;7.75;55.22;95205.13;4938933;28;20223;-67
2023/01/13 11:15:37;;;;;;;4.83;3.30;;;;;;;7.82;55.12;95203.66;4984595;28;20207;-67
2023/01/13 11:18:39;;;;;;;6.20;3.60;;;;;;;7.39;56.80;95207.28;5023882;28;20186;-67
2023/01/13 11:21:23;;;;;;;3.90;3.13;;;;;;;7.37;56.50;95200.50;5005274;28;20246;-69
2023/01/13 11:24:02;;;;;;;3.27;2.90;;;;;;;7.15;56.80;95201.47;5009083;28;20215;-67
2023/01/13 11:26:56;;;;;;;4.30;3.23;;;;;;;7.46;56.24;95194.53;5015716;28;20320;-67
2023/01/13 11:29:37;;;;;;;3.47;2.70;;;;;;;7.41;56.75;95197.53;4906789;28;20263;-67
2023/01/13 11:32:11;;;;;;;3.93;3.40;;;;;;;7.65;56.31;95196.44;4955831;28;20208;-67
2023/01/13 11:34:40;;;;;;;4.00;3.37;;;;;;;7.59;56.11;95199.53;4963136;28;20207;-68
2023/01/13 11:37:26;;;;;;;4.90;3.67;;;;;;;7.75;55.71;95184.19;4956090;28;20267;-68
2023/01/13 11:40:33;;;;;;;3.93;3.53;;;;;;;7.71;55.81;95188.88;4964544;28;20230;-68
2023/01/13 11:43:17;;;;;;;4.40;3.83;;;;;;;7.76;55.86;95190.28;4959157;28;20198;-68
2023/01/13 11:45:56;;;;;;;4.80;4.10;;;;;;;7.81;55.59;95194.16;4949646;28;20205;-68
2023/01/13 11:48:26;;;;;;;4.30;3.80;;;;;;;7.88;55.52;95187.41;4957356;28;20189;-68
2023/01/13 11:51:03;;;;;;;4.87;4.13;;;;;;;7.61;56.18;95185.38;4937816;29;20201;-68
2023/01/13 11:53:51;;;;;;;4.30;3.90;;;;;;;7.41;57.00;95187.06;4946117;29;20197;-68
2023/01/13 11:57:01;;;;;;;6.50;4.60;;;;;;;7.46;56.94;95184.88;4944615;28;20204;-68
2023/01/13 11:59:26;;;;;;;9.23;4.60;;;;;;;7.54;57.00;95186.88;4916373;29;20330;-67
2023/01/13 12:02:31;;;;;;;6.33;3.90;;;;;;;7.50;56.76;95181.03;4920100;29;20192;-66
2023/01/13 12:05:18;;;;;;;5.87;3.90;;;;;;;7.49;56.41;95183.78;4913048;29;20229;-67
2023/01/13 12:08:09;;;;;;;6.03;4.60;;;;;;;7.45;57.13;95177.97;4893008;29;20234;-68
2023/01/13 12:11:03;;;;;;;5.03;4.50;;;;;;;7.43;57.01;95171.22;4891821;29;20202;-65
2023/01/13 12:13:49;;;;;;;6.17;4.03;;;;;;;7.65;56.37;95170.25;4881195;29;20270;-65
2023/01/13 12:16:24;;;;;;;7.07;4.67;;;;;;;7.76;56.30;95174.56;4886803;29;20200;-65
2023/01/13 12:19:23;;;;;;;6.33;4.47;;;;;;;7.73;55.99;95173.03;4938688;28;20208;-65
2023/01/13 12:22:11;;;;;;;4.60;4.07;;;;;;;7.70;56.39;95168.06;4928688;29;20201;-69
2023/01/13 12:24:45;;;;;;;5.63;5.13;;;;;;;7.78;56.20;95165.63;4935891;28;20202;-69
2023/01/13 12:27:14;;;;;;;6.30;5.20;;;;;;;7.77;56.11;95168.38;4936474;29;20224;-70
2023/01/13 12:29:40;;;;;;;6.53;5.17;;;;;;;7.51;57.03;95171.41;4921696;28;20233;-70
2023/01/13 12:32:20;;;;;;;8.03;5.57;;;;;;;7.65;56.97;95168.47;4935217;29;20735;-70
2023/01/13 12:34:55;;;;;;;14.90;7.03;;;;;;;7.45;57.61;95174.53;4950123;28;20200;-70
2023/01/13 12:37:25;;;;;;;8.63;6.83;;;;;;;7.44;58.14;95171.09;5009774;28;20308;-70